Time;durP1;ratioP1;P1;durP2;ratioP2;P2;SDS_P1;SDS_P2;PMS_P1;PMS_P2;Temp;Humidity;BMP_temperature;BMP_pressure;BME280_temperature;BME280_humidity;BME280_pressure;Samples;Min_cycle;Max_cycle;Signal;HPM_P1;HPM_P2
2021/09/16 00:00:23;;;;;;;0.50;0.30;;;17.30;99.90;;;;;;4999194;28;20521;-67
2021/09/16 00:02:48;;;;;;;0.30;0.20;;;17.20;99.90;;;;;;5016671;28;20235;-66
2021/09/16 00:05:14;;;;;;;0.40;0.20;;;17.20;99.90;;;;;;5016682;28;20191;-65
2021/09/16 00:07:39;;;;;;;0.40;0.40;;;17.20;99.90;;;;;;5016470;28;20285;-65
2021/09/16 00:10:06;;;;;;;0.30;0.20;;;17.30;99.90;;;;;;5016179;28;20185;-65
2021/09/16 00:12:32;;;;;;;0.30;0.20;;;17.20;99.90;;;;;;5016374;28;20183;-65
2021/09/16 00:14:58;;;;;;;0.50;0.50;;;17.30;99.90;;;;;;5016363;28;20440;-65
2021/09/16 00:17:24;;;;;;;3.50;1.47;;;17.30;99.90;;;;;;5016251;28;20324;-65
2021/09/16 00:19:49;;;;;;;1.23;1.10;;;17.20;99.90;;;;;;5016206;28;20460;-65
2021/09/16 00:22:15;;;;;;;0.40;0.40;;;17.10;99.90;;;;;;5016182;28;20249;-65
2021/09/16 00:24:41;;;;;;;0.50;0.47;;;17.10;99.90;;;;;;5016322;28;20567;-65
2021/09/16 00:27:07;;;;;;;0.40;0.20;;;17.10;99.90;;;;;;4998597;28;20516;-65
2021/09/16 00:29:32;;;;;;;1.23;1.13;;;17.10;99.90;;;;;;5016070;28;20205;-65
2021/09/16 00:31:58;;;;;;;0.90;0.87;;;17.20;99.90;;;;;;5016082;28;20225;-65
2021/09/16 00:34:24;;;;;;;0.30;0.20;;;17.10;99.90;;;;;;5016045;28;20170;-65
2021/09/16 00:36:50;;;;;;;0.40;0.20;;;17.00;99.90;;;;;;5015953;28;20193;-65
2021/09/16 00:39:16;;;;;;;0.90;0.87;;;17.20;99.90;;;;;;5015723;28;20421;-66
2021/09/16 00:41:41;;;;;;;0.57;0.40;;;17.20;99.90;;;;;;4998445;28;20185;-66
2021/09/16 00:44:07;;;;;;;0.60;0.53;;;17.20;99.90;;;;;;5015756;28;20190;-66
2021/09/16 00:46:33;;;;;;;0.40;0.30;;;17.20;99.90;;;;;;5015660;28;20179;-66
2021/09/16 00:48:59;;;;;;;0.40;0.20;;;17.10;99.90;;;;;;5015539;28;20264;-66
2021/09/16 00:51:24;;;;;;;2.65;1.20;;;17.20;99.90;;;;;;5015936;28;20174;-66
2021/09/16 00:53:53;;;;;;;0.73;0.70;;;17.10;99.90;;;;;;5015099;28;20174;-66
2021/09/16 00:56:22;;;;;;;0.40;0.30;;;17.10;99.90;;;;;;5015456;28;20584;-66
2021/09/16 00:58:51;;;;;;;0.40;0.30;;;17.00;99.90;;;;;;5015587;28;20887;-66
2021/09/16 01:01:17;;;;;;;0.40;0.20;;;17.00;99.90;;;;;;5015607;28;20778;-66
2021/09/16 01:03:44;;;;;;;2.07;1.90;;;17.10;99.90;;;;;;5015457;28;20441;-66
2021/09/16 01:06:11;;;;;;;0.70;0.70;;;17.10;99.90;;;;;;5015311;28;20586;-66
2021/09/16 01:08:37;;;;;;;1.53;1.17;;;17.10;99.90;;;;;;5014873;28;20460;-66
2021/09/16 01:11:03;;;;;;;1.53;1.00;;;17.00;99.90;;;;;;5015361;28;20482;-66
2021/09/16 01:13:29;;;;;;;0.90;0.68;;;17.10;99.90;;;;;;5015218;28;20436;-66
2021/09/16 01:15:57;;;;;;;0.40;0.30;;;17.00;99.90;;;;;;5015230;28;20178;-66
2021/09/16 01:18:23;;;;;;;1.43;0.53;;;17.10;99.90;;;;;;5014977;28;20190;-67
2021/09/16 01:20:49;;;;;;;0.73;0.73;;;16.90;99.90;;;;;;5015058;28;20948;-65
2021/09/16 01:23:14;;;;;;;0.60;0.47;;;16.90;99.90;;;;;;5015076;28;20180;-65
2021/09/16 01:25:40;;;;;;;2.20;1.03;;;16.90;99.90;;;;;;5014979;28;20187;-65
2021/09/16 01:28:05;;;;;;;0.53;0.50;;;16.90;99.90;;;;;;5014788;28;20210;-64
2021/09/16 01:30:31;;;;;;;0.50;0.50;;;16.80;99.90;;;;;;5015275;28;20179;-64
2021/09/16 01:32:57;;;;;;;0.40;0.20;;;16.80;99.90;;;;;;5014898;28;20179;-65
2021/09/16 01:35:23;;;;;;;0.90;0.60;;;16.80;99.90;;;;;;5014936;28;20189;-64
2021/09/16 01:37:49;;;;;;;0.40;0.30;;;16.90;99.90;;;;;;5014684;28;20433;-65
2021/09/16 01:40:15;;;;;;;0.30;0.10;;;17.00;99.90;;;;;;5014599;28;20190;-65
2021/09/16 01:42:43;;;;;;;0.53;0.30;;;17.00;99.90;;;;;;5014938;28;20512;-65
2021/09/16 01:45:17;;;;;;;0.35;0.20;;;16.90;99.90;;;;;;5014386;28;20275;-65
2021/09/16 01:47:44;;;;;;;2.10;0.50;;;16.90;99.90;;;;;;5014396;28;20209;-64
2021/09/16 01:50:11;;;;;;;0.30;0.20;;;17.00;99.90;;;;;;5014364;28;20537;-65
2021/09/16 01:52:37;;;;;;;4.73;1.60;;;17.00;99.90;;;;;;5014377;28;20429;-65
2021/09/16 01:55:04;;;;;;;0.40;0.20;;;17.00;99.90;;;;;;5014600;28;20952;-65
2021/09/16 01:57:30;;;;;;;0.30;0.20;;;16.90;99.90;;;;;;5014970;28;20193;-64
2021/09/16 01:59:55;;;;;;;0.70;0.50;;;16.90;99.90;;;;;;5014241;28;20437;-65
2021/09/16 02:02:21;;;;;;;3.80;1.70;;;16.70;99.90;;;;;;5014447;28;20523;-65
2021/09/16 02:04:47;;;;;;;0.40;0.20;;;16.70;99.90;;;;;;5014173;28;20206;-64
2021/09/16 02:07:12;;;;;;;0.40;0.20;;;16.60;99.90;;;;;;4996618;28;20206;-64
2021/09/16 02:09:38;;;;;;;0.30;0.10;;;16.60;99.90;;;;;;5013928;28;20509;-65
2021/09/16 02:12:04;;;;;;;0.40;0.20;;;16.60;99.90;;;;;;4996859;28;20182;-64
2021/09/16 02:14:29;;;;;;;0.43;0.20;;;16.50;99.90;;;;;;4996767;28;20448;-65
2021/09/16 02:16:55;;;;;;;0.30;0.10;;;16.50;99.90;;;;;;5013950;28;20433;-64
2021/09/16 02:19:20;;;;;;;0.40;0.20;;;16.50;99.90;;;;;;5013856;28;20185;-65
2021/09/16 02:21:46;;;;;;;0.40;0.20;;;16.50;99.90;;;;;;5013975;28;20178;-65
2021/09/16 02:24:11;;;;;;;0.37;0.13;;;16.60;99.90;;;;;;5013873;28;20185;-64
2021/09/16 02:26:37;;;;;;;1.03;0.60;;;16.60;99.90;;;;;;5013905;28;20193;-65
2021/09/16 02:29:02;;;;;;;0.40;0.20;;;16.50;99.90;;;;;;5013626;28;20221;-65
2021/09/16 02:31:28;;;;;;;0.40;0.33;;;16.50;99.90;;;;;;5013837;28;20276;-65
2021/09/16 02:33:54;;;;;;;1.23;0.50;;;16.40;99.90;;;;;;5013836;28;20173;-66
2021/09/16 02:36:19;;;;;;;0.40;0.20;;;16.40;99.90;;;;;;4996519;28;20516;-66
2021/09/16 02:38:45;;;;;;;0.40;0.20;;;16.40;99.90;;;;;;5013470;28;20178;-66
2021/09/16 02:41:10;;;;;;;0.40;0.20;;;16.40;99.90;;;;;;5013654;28;20612;-66
2021/09/16 02:43:36;;;;;;;0.30;0.20;;;16.30;99.90;;;;;;5013878;28;20544;-66
2021/09/16 02:46:02;;;;;;;0.40;0.30;;;16.30;99.90;;;;;;5013618;28;20179;-66
2021/09/16 02:48:27;;;;;;;0.40;0.10;;;16.40;99.90;;;;;;5013255;28;20229;-67
2021/09/16 02:50:53;;;;;;;0.40;0.30;;;16.40;99.90;;;;;;5013588;28;20429;-67
2021/09/16 02:53:18;;;;;;;0.40;0.20;;;16.50;99.90;;;;;;5013591;28;20239;-67
2021/09/16 02:55:44;;;;;;;0.30;0.20;;;16.50;99.90;;;;;;5013543;28;20483;-67
2021/09/16 02:58:10;;;;;;;0.40;0.20;;;16.50;99.90;;;;;;5013256;28;20201;-67
2021/09/16 03:00:35;;;;;;;0.40;0.20;;;16.50;99.90;;;;;;5013562;28;20280;-67
2021/09/16 03:03:01;;;;;;;0.40;0.20;;;16.40;99.90;;;;;;5013452;28;20182;-67
2021/09/16 03:05:27;;;;;;;0.40;0.20;;;16.30;99.90;;;;;;5013514;28;20295;-67
2021/09/16 03:07:52;;;;;;;0.40;0.20;;;16.30;99.90;;;;;;5013405;28;20225;-67
2021/09/16 03:10:18;;;;;;;0.30;0.20;;;16.40;99.90;;;;;;5013330;28;20182;-66
2021/09/16 03:12:43;;;;;;;0.30;0.20;;;16.40;99.90;;;;;;5013588;28;20246;-66
2021/09/16 03:15:11;;;;;;;0.40;0.20;;;16.40;99.90;;;;;;5013452;28;20206;-66
2021/09/16 03:17:38;;;;;;;0.40;0.20;;;16.40;99.90;;;;;;5015291;28;20262;-67
2021/09/16 03:20:05;;;;;;;0.43;0.43;;;16.30;99.90;;;;;;5017014;28;20186;-66
2021/09/16 03:22:31;;;;;;;0.40;0.20;;;16.20;99.90;;;;;;5017173;28;20530;-67
2021/09/16 03:24:56;;;;;;;0.80;0.80;;;16.20;99.90;;;;;;5017163;28;20428;-66
2021/09/16 03:27:22;;;;;;;0.40;0.20;;;16.10;99.90;;;;;;5017178;28;20253;-67
2021/09/16 03:29:47;;;;;;;0.40;0.30;;;16.00;99.90;;;;;;5016700;28;20545;-66
2021/09/16 03:32:13;;;;;;;0.40;0.20;;;16.00;99.90;;;;;;5016963;28;20503;-66
2021/09/16 03:34:38;;;;;;;0.30;0.10;;;15.90;99.90;;;;;;5016788;28;20228;-67
2021/09/16 03:37:04;;;;;;;0.40;0.20;;;15.90;99.90;;;;;;5016943;28;20547;-67
2021/09/16 03:39:29;;;;;;;0.30;0.20;;;15.90;99.90;;;;;;5016644;28;20185;-66
2021/09/16 03:41:55;;;;;;;0.40;0.20;;;15.90;99.90;;;;;;5016824;28;20179;-66
2021/09/16 03:44:20;;;;;;;0.40;0.20;;;15.90;99.90;;;;;;5016630;28;20627;-66
2021/09/16 03:46:46;;;;;;;0.30;0.20;;;15.90;99.90;;;;;;5016646;28;20183;-67
2021/09/16 03:49:12;;;;;;;0.30;0.17;;;16.00;99.90;;;;;;5016188;28;20218;-67
2021/09/16 03:51:37;;;;;;;0.30;0.10;;;16.10;99.90;;;;;;5016547;28;20183;-66
2021/09/16 03:54:03;;;;;;;0.30;0.20;;;16.00;99.90;;;;;;5016449;28;20182;-67
2021/09/16 03:56:28;;;;;;;0.40;0.33;;;16.00;99.90;;;;;;4999336;28;20185;-66
2021/09/16 03:58:55;;;;;;;0.40;0.20;;;15.90;99.90;;;;;;5016362;28;20554;-66
2021/09/16 04:01:20;;;;;;;0.40;0.20;;;15.80;99.90;;;;;;5016612;28;20214;-66
2021/09/16 04:03:46;;;;;;;0.37;0.20;;;15.80;99.90;;;;;;5016330;28;20264;-67
2021/09/16 04:06:11;;;;;;;0.30;0.20;;;15.80;99.90;;;;;;5016514;28;20514;-66
2021/09/16 04:08:37;;;;;;;1.60;0.30;;;15.80;99.90;;;;;;5016137;28;20214;-66
2021/09/16 04:11:04;;;;;;;0.30;0.20;;;15.80;99.90;;;;;;5016231;28;20320;-66
2021/09/16 04:13:29;;;;;;;0.30;0.20;;;15.70;99.90;;;;;;5016393;28;20643;-65
2021/09/16 04:15:55;;;;;;;0.40;0.20;;;15.70;99.90;;;;;;5016233;28;20178;-64
2021/09/16 04:18:20;;;;;;;0.40;0.20;;;15.70;99.90;;;;;;5016098;28;20634;-64
2021/09/16 04:20:46;;;;;;;0.40;0.20;;;15.60;99.90;;;;;;5016186;28;20206;-64
2021/09/16 04:23:11;;;;;;;0.83;0.70;;;15.50;99.90;;;;;;4998848;28;20189;-64
2021/09/16 04:25:37;;;;;;;0.30;0.20;;;15.50;99.90;;;;;;4998970;28;20190;-64
2021/09/16 04:28:03;;;;;;;0.30;0.20;;;15.40;99.90;;;;;;5015519;28;20539;-64
2021/09/16 04:30:29;;;;;;;1.27;1.27;;;15.40;99.90;;;;;;5015460;28;20186;-64
2021/09/16 04:32:54;;;;;;;0.30;0.10;;;15.30;99.90;;;;;;5015995;28;20756;-65
2021/09/16 04:35:20;;;;;;;0.30;0.20;;;15.30;99.90;;;;;;5015858;28;20237;-64
2021/09/16 04:37:46;;;;;;;0.30;0.20;;;15.30;99.90;;;;;;5015742;28;20178;-64
2021/09/16 04:40:12;;;;;;;0.30;0.20;;;15.10;99.90;;;;;;5015698;28;20522;-64
2021/09/16 04:42:38;;;;;;;0.40;0.27;;;15.10;99.90;;;;;;5015776;28;20631;-64
2021/09/16 04:45:04;;;;;;;0.40;0.40;;;15.20;99.90;;;;;;5015840;28;20479;-64
2021/09/16 04:47:29;;;;;;;0.30;0.20;;;15.20;99.90;;;;;;5015812;28;20473;-64
2021/09/16 04:49:55;;;;;;;0.30;0.20;;;15.20;99.90;;;;;;5015484;28;20514;-64
2021/09/16 04:52:20;;;;;;;0.30;0.20;;;15.20;99.90;;;;;;5015588;28;20182;-65
2021/09/16 04:54:46;;;;;;;0.30;0.20;;;15.20;99.90;;;;;;5015627;28;20213;-64
2021/09/16 04:57:11;;;;;;;0.30;0.20;;;15.30;99.90;;;;;;5015206;28;20179;-65
2021/09/16 04:59:37;;;;;;;0.60;0.43;;;15.20;99.90;;;;;;5015194;28;20183;-65
2021/09/16 05:02:03;;;;;;;0.30;0.20;;;15.30;99.90;;;;;;5015459;28;20269;-65
2021/09/16 05:04:28;;;;;;;0.40;0.30;;;15.20;99.90;;;;;;5015364;28;20220;-65
2021/09/16 05:06:54;;;;;;;0.30;0.20;;;15.30;99.90;;;;;;5015170;28;20175;-64
2021/09/16 05:09:20;;;;;;;0.40;0.30;;;15.20;99.90;;;;;;5015335;28;20611;-65
2021/09/16 05:11:46;;;;;;;0.40;0.20;;;15.20;99.90;;;;;;5014924;28;20635;-65
2021/09/16 05:14:12;;;;;;;0.30;0.20;;;15.20;99.90;;;;;;5015007;28;20186;-65
2021/09/16 05:16:38;;;;;;;0.90;0.40;;;15.10;99.90;;;;;;5015004;28;20266;-65
2021/09/16 05:19:04;;;;;;;0.30;0.20;;;15.10;99.90;;;;;;5014480;28;20267;-65
2021/09/16 05:21:29;;;;;;;0.60;0.60;;;15.20;99.90;;;;;;5015240;28;20440;-65
2021/09/16 05:23:55;;;;;;;0.33;0.20;;;15.20;99.90;;;;;;4997842;28;20975;-65
2021/09/16 05:26:21;;;;;;;0.30;0.20;;;15.10;99.90;;;;;;5015040;28;20312;-65
2021/09/16 05:28:46;;;;;;;0.83;0.67;;;15.30;99.90;;;;;;5014460;28;20681;-65
2021/09/16 05:31:12;;;;;;;0.30;0.20;;;15.40;99.90;;;;;;5014857;28;20240;-65
2021/09/16 05:33:37;;;;;;;0.40;0.30;;;15.50;99.90;;;;;;5014667;28;20174;-65
2021/09/16 05:36:04;;;;;;;2.03;1.93;;;15.60;99.90;;;;;;5014897;28;20600;-65
2021/09/16 05:38:30;;;;;;;0.40;0.20;;;15.80;99.90;;;;;;5014245;28;20177;-64
2021/09/16 05:40:56;;;;;;;0.30;0.20;;;15.90;99.90;;;;;;5013890;28;20201;-65
2021/09/16 05:43:22;;;;;;;0.40;0.30;;;16.00;99.90;;;;;;5014602;28;20224;-62
2021/09/16 05:45:47;;;;;;;0.80;0.60;;;16.00;99.90;;;;;;5014684;28;20277;-64
2021/09/16 05:48:13;;;;;;;0.50;0.50;;;15.90;99.90;;;;;;5013798;28;20569;-65
2021/09/16 05:50:39;;;;;;;0.73;0.73;;;15.90;99.90;;;;;;5014307;28;20174;-65
2021/09/16 05:53:05;;;;;;;0.40;0.30;;;15.80;99.90;;;;;;5013663;28;20433;-66
2021/09/16 05:55:31;;;;;;;1.45;1.27;;;15.80;99.90;;;;;;5013964;28;20440;-66
2021/09/16 05:57:56;;;;;;;0.30;0.20;;;15.80;99.90;;;;;;5011778;28;20194;-66
2021/09/16 06:00:23;;;;;;;0.40;0.30;;;15.80;99.90;;;;;;5018850;28;20240;-66
2021/09/16 06:02:49;;;;;;;0.40;0.30;;;15.70;99.90;;;;;;5022276;28;20265;-65
2021/09/16 06:05:15;;;;;;;1.05;0.50;;;15.90;99.90;;;;;;5033341;28;20200;-63
2021/09/16 06:07:41;;;;;;;0.70;0.50;;;15.80;99.90;;;;;;5027941;28;20215;-66
2021/09/16 06:10:07;;;;;;;1.00;0.97;;;15.80;99.90;;;;;;5017286;28;20542;-66
2021/09/16 06:12:33;;;;;;;3.92;1.42;;;15.90;99.90;;;;;;5011285;28;20170;-65
2021/09/16 06:14:58;;;;;;;0.40;0.20;;;16.00;99.90;;;;;;5022779;28;20181;-68
2021/09/16 06:17:24;;;;;;;0.40;0.20;;;16.10;99.90;;;;;;5030693;28;20186;-66
2021/09/16 06:19:50;;;;;;;2.90;1.87;;;16.20;99.90;;;;;;5013920;28;20189;-65
2021/09/16 06:22:16;;;;;;;0.50;0.50;;;16.20;99.90;;;;;;5015981;28;20443;-68
2021/09/16 06:24:41;;;;;;;0.40;0.20;;;16.00;99.90;;;;;;5018823;28;20514;-68
2021/09/16 06:27:07;;;;;;;0.43;0.30;;;16.00;99.90;;;;;;5021276;28;20620;-65
2021/09/16 06:29:32;;;;;;;0.50;0.33;;;16.20;99.90;;;;;;5021708;28;20244;-67
2021/09/16 06:31:58;;;;;;;0.70;0.50;;;16.10;99.90;;;;;;5020843;28;20272;-67
2021/09/16 06:34:25;;;;;;;0.40;0.20;;;16.10;99.90;;;;;;5011355;28;20190;-67
2021/09/16 06:36:51;;;;;;;0.75;0.75;;;16.20;99.90;;;;;;5012867;28;20198;-67
2021/09/16 06:39:16;;;;;;;0.50;0.43;;;16.50;99.90;;;;;;5016255;28;20560;-63
2021/09/16 06:41:42;;;;;;;1.07;0.93;;;16.50;99.90;;;;;;5025027;28;20204;-65
2021/09/16 06:44:07;;;;;;;7.10;1.40;;;16.30;99.90;;;;;;5017636;28;20198;-64
2021/09/16 06:46:33;;;;;;;0.50;0.40;;;16.20;99.90;;;;;;5006640;28;20182;-68
2021/09/16 06:48:59;;;;;;;0.40;0.20;;;16.20;99.90;;;;;;5030696;28;20650;-68
2021/09/16 06:51:26;;;;;;;0.50;0.40;;;16.30;99.90;;;;;;5026114;28;20224;-68
2021/09/16 06:53:51;;;;;;;0.80;0.67;;;16.50;99.90;;;;;;5029448;28;20181;-68
2021/09/16 06:56:17;;;;;;;0.40;0.20;;;16.70;99.90;;;;;;5015759;28;20796;-68
2021/09/16 06:58:42;;;;;;;0.40;0.20;;;16.60;99.90;;;;;;5008901;28;20222;-68
2021/09/16 07:01:08;;;;;;;1.13;0.77;;;16.50;99.90;;;;;;5009362;28;20261;-68
2021/09/16 07:03:33;;;;;;;0.53;0.47;;;16.50;99.90;;;;;;5002812;28;20195;-68
2021/09/16 07:05:59;;;;;;;0.57;0.50;;;16.40;99.90;;;;;;5016095;28;20186;-68
2021/09/16 07:08:24;;;;;;;0.40;0.20;;;16.40;99.90;;;;;;5007927;28;20607;-67
2021/09/16 07:10:50;;;;;;;0.40;0.33;;;16.50;99.90;;;;;;5000535;28;20194;-68
2021/09/16 07:13:15;;;;;;;1.70;1.60;;;16.60;99.90;;;;;;4997766;28;20506;-65
2021/09/16 07:15:51;;;;;;;0.40;0.20;;;16.60;99.90;;;;;;5021509;28;20174;-67
2021/09/16 07:18:19;;;;;;;0.60;0.57;;;16.60;99.90;;;;;;5007385;28;20189;-67
2021/09/16 07:20:48;;;;;;;8.13;1.90;;;16.70;99.90;;;;;;5007211;28;20434;-67
2021/09/16 07:23:14;;;;;;;0.40;0.20;;;16.70;99.90;;;;;;4997417;28;20899;-69
2021/09/16 07:25:39;;;;;;;0.40;0.30;;;16.70;99.90;;;;;;4997438;28;20456;-67
2021/09/16 07:28:05;;;;;;;1.60;1.50;;;16.90;99.90;;;;;;5021797;28;20205;-68
2021/09/16 07:30:30;;;;;;;0.40;0.20;;;17.00;99.90;;;;;;5018923;28;20276;-68
2021/09/16 07:32:56;;;;;;;0.83;0.50;;;17.00;99.90;;;;;;5017254;28;20631;-68
2021/09/16 07:35:22;;;;;;;1.87;1.77;;;17.10;99.90;;;;;;5018918;28;20567;-69
2021/09/16 07:37:48;;;;;;;2.73;2.43;;;17.00;99.90;;;;;;5016785;28;20636;-68
2021/09/16 07:40:14;;;;;;;0.40;0.20;;;16.90;99.90;;;;;;5016288;28;20217;-68
2021/09/16 07:42:40;;;;;;;0.40;0.20;;;17.00;99.90;;;;;;5016843;28;20436;-69
2021/09/16 07:45:06;;;;;;;0.40;0.10;;;17.20;99.90;;;;;;5032386;28;20458;-68
2021/09/16 07:47:32;;;;;;;0.50;0.43;;;17.40;99.90;;;;;;5018567;28;20650;-68
2021/09/16 07:49:58;;;;;;;1.77;1.30;;;17.60;99.90;;;;;;5017669;28;20455;-68
2021/09/16 07:52:23;;;;;;;0.40;0.20;;;17.50;99.90;;;;;;5016577;28;20776;-69
2021/09/16 07:54:49;;;;;;;0.60;0.50;;;17.70;99.90;;;;;;5016331;28;20463;-68
2021/09/16 07:57:14;;;;;;;0.40;0.23;;;18.00;99.90;;;;;;5016318;28;20174;-68
2021/09/16 07:59:40;;;;;;;0.40;0.20;;;18.20;99.90;;;;;;5016227;28;20209;-69
2021/09/16 08:02:05;;;;;;;1.33;1.23;;;18.50;99.90;;;;;;5031730;28;20300;-69
2021/09/16 08:04:31;;;;;;;0.40;0.23;;;18.50;77.10;;;;;;5035658;28;20209;-68
2021/09/16 08:06:56;;;;;;;2.77;1.03;;;18.00;99.90;;;;;;5017836;28;20272;-68
2021/09/16 08:09:22;;;;;;;0.40;0.20;;;17.90;99.90;;;;;;4998477;28;20206;-69
2021/09/16 08:11:48;;;;;;;0.40;0.20;;;18.10;99.90;;;;;;5016479;28;20197;-70
2021/09/16 08:14:14;;;;;;;0.60;0.50;;;18.30;99.90;;;;;;5016306;28;20421;-71
2021/09/16 08:16:39;;;;;;;0.57;0.57;;;18.40;95.30;;;;;;5016069;28;20175;-69
2021/09/16 08:19:06;;;;;;;0.40;0.40;;;18.20;99.90;;;;;;5015842;28;20245;-68
2021/09/16 08:21:32;;;;;;;4.27;2.50;;;18.10;99.90;;;;;;5015981;28;20675;-69
2021/09/16 08:23:58;;;;;;;2.30;1.03;;;18.30;99.90;;;;;;5015765;28;20509;-70
2021/09/16 08:26:24;;;;;;;0.50;0.30;;;18.10;99.90;;;;;;5016348;28;20808;-69
2021/09/16 08:28:50;;;;;;;0.70;0.30;;;18.00;99.90;;;;;;5015975;28;20465;-69
2021/09/16 08:31:16;;;;;;;2.23;1.80;;;18.20;99.90;;;;;;5015770;28;20185;-69
2021/09/16 08:33:42;;;;;;;0.50;0.27;;;18.40;99.90;;;;;;5015534;28;20433;-69
2021/09/16 08:36:10;;;;;;;0.40;0.20;;;18.60;69.70;;;;;;5015679;28;20425;-69
2021/09/16 08:38:36;;;;;;;0.40;0.20;;;18.50;82.60;;;;;;5015353;28;20179;-70
2021/09/16 08:41:01;;;;;;;0.40;0.20;;;18.50;84.50;;;;;;4998507;28;20449;-70
2021/09/16 08:43:30;;;;;;;1.00;0.30;;;18.70;94.90;;;;;;4996021;28;20434;-70
2021/09/16 08:45:58;;;;;;;0.40;0.20;;;18.60;30.80;;;;;;4995971;28;20191;-70
2021/09/16 08:48:23;;;;;;;0.40;0.20;;;18.30;99.90;;;;;;4995881;28;20485;-69
2021/09/16 08:50:49;;;;;;;0.40;0.20;;;18.10;99.90;;;;;;4978908;28;20776;-69
2021/09/16 08:53:21;;;;;;;0.40;0.27;;;18.10;99.90;;;;;;4995855;28;20186;-70
2021/09/16 08:55:47;;;;;;;0.40;0.20;;;18.40;99.90;;;;;;4995903;28;20179;-70
2021/09/16 08:58:14;;;;;;;0.40;0.20;;;18.90;99.90;;;;;;4995679;28;20438;-68
2021/09/16 09:00:40;;;;;;;0.40;0.17;;;19.30;92.70;;;;;;4995810;28;20444;-68
2021/09/16 09:03:05;;;;;;;0.40;0.20;;;19.70;1.00;;;;;;4996162;28;20430;-71
2021/09/16 09:05:31;;;;;;;0.40;0.20;;;19.50;1.00;;;;;;4995615;28;20183;-70
2021/09/16 09:08:00;;;;;;;0.40;0.20;;;19.20;1.00;;;;;;4992133;28;20210;-68
2021/09/16 09:10:39;;;;;;;0.83;0.40;;;19.10;5.20;;;;;;5014954;28;20218;-68
2021/09/16 09:13:08;;;;;;;0.40;0.20;;;19.30;1.00;;;;;;5015074;28;20559;-68
2021/09/16 09:15:34;;;;;;;0.50;0.40;;;19.30;1.00;;;;;;5013935;28;20879;-68
2021/09/16 09:18:13;;;;;;;0.50;0.30;;;19.40;1.00;;;;;;5014517;28;20837;-69
2021/09/16 09:20:59;;;;;;;0.40;0.20;;;19.70;1.00;;;;;;5014864;28;20437;-70
2021/09/16 09:23:34;;;;;;;0.40;0.20;;;19.90;1.00;;;;;;5014733;28;20437;-68
2021/09/16 09:26:27;;;;;;;0.40;0.20;;;20.10;1.00;;;;;;5023613;28;20443;-68
2021/09/16 09:29:06;;;;;;;0.40;0.20;;;20.00;1.00;;;;;;5029587;28;20472;-68
2021/09/16 09:31:32;;;;;;;0.40;0.10;;;19.80;1.00;;;;;;5015993;28;20747;-68
2021/09/16 09:33:58;;;;;;;0.40;0.20;;;19.80;1.00;;;;;;5034277;28;20428;-68
2021/09/16 09:36:23;;;;;;;1.27;0.37;;;20.10;1.00;;;;;;5032707;28;20216;-68
2021/09/16 09:38:58;;;;;;;0.40;0.10;;;20.40;99.90;;;;;;5031609;28;20177;-67
2021/09/16 09:41:29;;;;;;;0.40;0.20;;;20.30;99.90;;;;;;5032816;28;20423;-67
2021/09/16 09:44:08;;;;;;;0.40;0.20;;;20.50;99.90;;;;;;5030156;28;20466;-67
2021/09/16 09:46:47;;;;;;;0.50;0.30;;;20.30;99.90;;;;;;5030474;28;20428;-67
2021/09/16 09:49:16;;;;;;;0.40;0.20;;;20.30;99.90;;;;;;5030850;28;20491;-68
2021/09/16 09:51:43;;;;;;;0.40;0.20;;;20.40;99.90;;;;;;5032152;28;20806;-67
2021/09/16 09:54:39;;;;;;;0.40;0.20;;;20.30;99.90;;;;;;5032221;28;20456;-67
2021/09/16 09:57:13;;;;;;;0.40;0.20;;;20.60;99.90;;;;;;5031929;28;20432;-67
2021/09/16 10:00:08;;;;;;;0.40;0.20;;;20.90;1.00;;;;;;5033376;28;20423;-67
2021/09/16 10:02:53;;;;;;;0.90;0.60;;;20.70;99.90;;;;;;5033944;28;20439;-68
2021/09/16 10:05:22;;;;;;;0.40;0.10;;;20.50;99.90;;;;;;5016551;28;20428;-67
2021/09/16 10:07:49;;;;;;;0.60;0.40;;;20.40;99.90;;;;;;5033724;28;20486;-67
2021/09/16 10:10:15;;;;;;;0.40;0.13;;;20.50;99.90;;;;;;5033782;28;20427;-68
2021/09/16 10:12:42;;;;;;;0.40;0.20;;;20.60;99.90;;;;;;5033913;28;20442;-67
2021/09/16 10:15:14;;;;;;;0.40;0.20;;;20.90;99.90;;;;;;5033629;28;20424;-67
2021/09/16 10:17:41;;;;;;;0.83;0.63;;;20.80;99.90;;;;;;5034091;28;20428;-68
2021/09/16 10:20:08;;;;;;;0.50;0.30;;;21.00;1.00;;;;;;5033568;28;20515;-67
2021/09/16 10:22:34;;;;;;;0.97;0.70;;;20.80;1.00;;;;;;5033709;28;20775;-66
2021/09/16 10:25:01;;;;;;;0.60;0.30;;;20.60;92.40;;;;;;5033704;28;20782;-66
2021/09/16 10:27:39;;;;;;;0.40;0.20;;;20.40;99.90;;;;;;5033166;28;20803;-65
2021/09/16 10:30:23;;;;;;;0.67;0.27;;;20.50;99.90;;;;;;5033359;28;20566;-66
2021/09/16 10:33:01;;;;;;;0.40;0.10;;;20.90;99.90;;;;;;5021611;28;20444;-67
2021/09/16 10:35:27;;;;;;;0.40;0.20;;;21.10;60.40;;;;;;5010895;28;20435;-68
2021/09/16 10:37:53;;;;;;;0.60;0.30;;;21.40;1.00;;;;;;5019478;28;20433;-67
2021/09/16 10:40:23;;;;;;;1.33;0.80;;;21.00;1.00;;;;;;5023397;28;20765;-67
2021/09/16 10:42:51;;;;;;;0.70;0.40;;;21.40;1.00;;;;;;5017257;28;20193;-67
2021/09/16 10:45:29;;;;;;;0.50;0.20;;;21.00;1.00;;;;;;5021757;28;20902;-66
2021/09/16 10:48:25;;;;;;;4.73;1.07;;;21.00;1.00;;;;;;5020554;28;20643;-66
2021/09/16 10:50:54;;;;;;;0.50;0.30;;;20.90;99.90;;;;;;5024808;28;20790;-66
2021/09/16 10:53:40;;;;;;;0.40;0.20;;;20.80;1.00;;;;;;4994183;28;20429;-66
2021/09/16 10:56:23;;;;;;;0.40;0.20;;;21.10;1.00;;;;;;4993548;28;20434;-67
2021/09/16 10:58:54;;;;;;;2.20;1.90;;;21.30;99.90;;;;;;4993683;28;20887;-65
2021/09/16 11:01:50;;;;;;;0.50;0.33;;;21.30;1.00;;;;;;5013706;28;20490;-65
2021/09/16 11:04:17;;;;;;;0.80;0.57;;;21.10;99.90;;;;;;5013961;28;20433;-66
2021/09/16 11:06:44;;;;;;;2.73;0.50;;;20.90;1.00;;;;;;5013420;28;20905;-65
2021/09/16 11:09:10;;;;;;;0.60;0.20;;;20.60;99.90;;;;;;5013115;28;20791;-66
2021/09/16 11:12:07;;;;;;;0.70;0.50;;;20.80;10.10;;;;;;5019147;28;20458;-66
2021/09/16 11:14:42;;;;;;;0.40;0.20;;;20.80;27.90;;;;;;4977620;28;20466;-68
2021/09/16 11:17:11;;;;;;;1.07;0.30;;;20.80;99.90;;;;;;5031569;28;20948;-69
2021/09/16 11:19:45;;;;;;;0.40;0.20;;;20.60;99.90;;;;;;5013324;28;21090;-67
2021/09/16 11:22:11;;;;;;;0.40;0.20;;;20.50;1.00;;;;;;5013526;28;20479;-67
2021/09/16 11:24:42;;;;;;;0.40;0.20;;;20.40;1.00;;;;;;5013240;28;20465;-68
2021/09/16 11:27:10;;;;;;;0.40;0.20;;;20.40;1.00;;;;;;5021293;28;20204;-66
2021/09/16 11:29:41;;;;;;;0.50;0.30;;;20.80;4.20;;;;;;5027009;28;20436;-67
2021/09/16 11:32:07;;;;;;;0.40;0.20;;;20.80;1.00;;;;;;5033053;28;20471;-68
2021/09/16 11:34:32;;;;;;;0.50;0.30;;;20.70;1.00;;;;;;5032798;28;20802;-62
2021/09/16 11:37:07;;;;;;;0.40;0.20;;;20.80;99.90;;;;;;5032934;28;20987;-67
2021/09/16 11:39:33;;;;;;;0.40;0.20;;;20.70;99.90;;;;;;5036148;28;20177;-66
2021/09/16 11:42:15;;;;;;;0.40;0.20;;;20.90;64.60;;;;;;5036697;28;20428;-66
2021/09/16 11:45:06;;;;;;;1.03;0.80;;;21.20;1.00;;;;;;4997322;28;20772;-66
2021/09/16 11:47:55;;;;;;;0.97;0.87;;;21.30;99.90;;;;;;4996475;28;20465;-68
2021/09/16 11:50:29;;;;;;;0.67;0.60;;;21.10;1.00;;;;;;4997194;28;20433;-65
2021/09/16 11:53:05;;;;;;;0.40;0.20;;;21.20;1.00;;;;;;4996971;28;20492;-66
2021/09/16 11:55:34;;;;;;;0.40;0.20;;;21.10;93.30;;;;;;4996958;28;20449;-66
2021/09/16 11:58:03;;;;;;;0.40;0.10;;;21.00;1.00;;;;;;4997022;28;20508;-66
2021/09/16 12:00:33;;;;;;;0.40;0.20;;;20.90;1.00;;;;;;4996721;28;20414;-68
2021/09/16 12:03:04;;;;;;;2.63;2.43;;;20.60;1.00;;;;;;4997123;28;20727;-68
2021/09/16 12:05:37;;;;;;;15.90;1.80;;;20.50;1.00;;;;;;4997088;28;20406;-66
2021/09/16 12:08:05;;;;;;;0.70;0.40;;;20.70;48.80;;;;;;4996530;28;20458;-66
2021/09/16 12:10:36;;;;;;;0.40;0.20;;;20.90;1.00;;;;;;4996469;28;20488;-66
2021/09/16 12:13:01;;;;;;;10.60;0.80;;;21.00;1.00;;;;;;4979428;28;20453;-65
2021/09/16 12:15:27;;;;;;;0.50;0.30;;;20.90;1.00;;;;;;4996558;28;20418;-65
2021/09/16 12:17:52;;;;;;;0.40;0.20;;;20.60;99.90;;;;;;4996695;28;20179;-66
2021/09/16 12:20:18;;;;;;;0.40;0.20;;;20.20;1.00;;;;;;4996593;28;20175;-67
2021/09/16 12:22:44;;;;;;;0.40;0.20;;;20.00;24.80;;;;;;4996254;28;20239;-65
2021/09/16 12:25:10;;;;;;;0.40;0.20;;;20.20;25.20;;;;;;4996412;28;20198;-67
2021/09/16 12:27:35;;;;;;;0.50;0.30;;;20.70;1.00;;;;;;4996161;28;20203;-67
2021/09/16 12:30:20;;;;;;;0.50;0.30;;;21.10;99.90;;;;;;4996195;28;20193;-67
2021/09/16 12:32:46;;;;;;;0.40;0.20;;;21.10;1.00;;;;;;4996507;28;20182;-68
2021/09/16 12:35:18;;;;;;;0.50;0.43;;;20.80;99.90;;;;;;4996116;28;20414;-71
2021/09/16 12:37:44;;;;;;;0.40;0.27;;;20.90;1.00;;;;;;4996149;28;20187;-68
2021/09/16 12:40:29;;;;;;;0.40;0.20;;;20.80;1.00;;;;;;4996153;28;20767;-68
2021/09/16 12:43:16;;;;;;;1.03;0.60;;;20.40;1.00;;;;;;5001354;28;20292;-67
2021/09/16 12:45:41;;;;;;;1.00;0.67;;;20.00;1.00;;;;;;5014140;28;20445;-67
2021/09/16 12:48:14;;;;;;;0.67;0.47;;;19.60;1.00;;;;;;5014671;28;20933;-66
2021/09/16 12:50:44;;;;;;;2.40;0.30;;;19.40;1.00;;;;;;5014179;28;20192;-66